createdAt,value
2019-02-28T00:01:30.436Z,100399.47
2019-02-28T00:03:59.090Z,100398.33
2019-02-28T00:06:26.907Z,100381.93
2019-02-28T00:08:54.752Z,100377.69
2019-02-28T00:11:22.596Z,100369.61
2019-02-28T00:13:52.305Z,100365.93
2019-02-28T00:16:20.159Z,100365.18
2019-02-28T00:18:49.953Z,100352.52
2019-02-28T00:21:17.621Z,100343.92
2019-02-28T00:23:45.407Z,100332.47
2019-02-28T00:26:13.150Z,100332.47
2019-02-28T00:28:41.054Z,100336.30
2019-02-28T00:31:08.770Z,100336.50
2019-02-28T00:33:36.550Z,100336.16
2019-02-28T00:36:04.311Z,100337.44
2019-02-28T00:38:32.257Z,100336.16
2019-02-28T00:40:59.989Z,100330.45
2019-02-28T00:43:27.931Z,100329.81
2019-02-28T00:45:55.809Z,100329.35
2019-02-28T00:48:23.563Z,100326.36
2019-02-28T00:50:51.513Z,100324.65
2019-02-28T00:53:19.273Z,100325.66
2019-02-28T00:55:47.195Z,100322.92
2019-02-28T00:58:15.127Z,100321.72
2019-02-28T01:00:42.871Z,100319.14
2019-02-28T01:03:10.637Z,100317.53
2019-02-28T01:05:38.424Z,100318.98
2019-02-28T01:08:06.343Z,100310.86
2019-02-28T01:10:38.795Z,100300.09
2019-02-28T01:13:03.959Z,100297.16
2019-02-28T01:15:31.956Z,100295.34
2019-02-28T01:18:00.409Z,100295.41
2019-02-28T01:20:29.203Z,100294.78
2019-02-28T01:22:58.475Z,100292.56
2019-02-28T01:25:26.617Z,100291.33
2019-02-28T01:27:54.412Z,100293.61
2019-02-28T01:30:22.348Z,100297.87
2019-02-28T01:32:50.971Z,100291.53
2019-02-28T01:35:18.886Z,100285.14
2019-02-28T01:37:46.604Z,100285.27
2019-02-28T01:40:14.706Z,100281.16
2019-02-28T01:42:42.531Z,100278.55
2019-02-28T01:45:11.025Z,100271.09
2019-02-28T01:47:38.905Z,100265.30
2019-02-28T01:50:06.978Z,100263.25
2019-02-28T01:52:34.696Z,100262.05
2019-02-28T01:55:02.857Z,100260.63
2019-02-28T01:57:30.574Z,100249.21
2019-02-28T01:59:58.530Z,100249.67
2019-02-28T02:02:26.266Z,100238.69
2019-02-28T02:04:54.028Z,100245.52
2019-02-28T02:07:21.854Z,100244.48
2019-02-28T02:09:49.897Z,100241.17
2019-02-28T02:12:17.797Z,100238.55
2019-02-28T02:14:45.867Z,100240.36
2019-02-28T02:17:13.881Z,100229.20
2019-02-28T02:19:41.634Z,100227.34
2019-02-28T02:22:10.118Z,100221.51
2019-02-28T02:24:38.020Z,100215.28
2019-02-28T02:27:06.007Z,100210.02
2019-02-28T02:29:36.269Z,100212.83
2019-02-28T02:32:03.774Z,100205.19
2019-02-28T02:34:31.517Z,100200.34
2019-02-28T02:36:59.225Z,100195.81
2019-02-28T02:39:27.153Z,100195.31
2019-02-28T02:41:55.032Z,100199.87
2019-02-28T02:44:22.770Z,100194.14
2019-02-28T02:46:55.443Z,100191.06
2019-02-28T02:49:20.379Z,100188.58
2019-02-28T02:51:50.359Z,100188.25
2019-02-28T02:54:19.629Z,100193.26
2019-02-28T02:56:47.552Z,100186.60
2019-02-28T02:59:15.303Z,100183.42
2019-02-28T03:01:43.068Z,100183.92
2019-02-28T03:04:10.833Z,100182.36
2019-02-28T03:06:38.726Z,100175.22
2019-02-28T03:09:10.001Z,100163.59
2019-02-28T03:11:37.472Z,100156.88
2019-02-28T03:14:05.235Z,100161.32
2019-02-28T03:16:34.544Z,100155.13
2019-02-28T03:19:02.432Z,100152.05
2019-02-28T03:21:30.353Z,100145.68
2019-02-28T03:23:58.145Z,100145.05
2019-02-28T03:26:25.880Z,100145.96
2019-02-28T03:28:53.613Z,100150.08
2019-02-28T03:31:21.552Z,100137.92
2019-02-28T03:33:49.317Z,100133.38
2019-02-28T03:36:17.247Z,100134.72
2019-02-28T03:38:49.625Z,100138.63
2019-02-28T03:41:17.846Z,100132.27
2019-02-28T03:43:44.361Z,100131.33
2019-02-28T03:46:12.311Z,100129.42
2019-02-28T03:48:40.093Z,100130.22
2019-02-28T03:51:07.873Z,100132.09
2019-02-28T03:53:35.763Z,100129.19
2019-02-28T03:56:03.741Z,100126.08
2019-02-28T03:58:31.774Z,100123.62
2019-02-28T04:00:59.518Z,100119.88
2019-02-28T04:03:33.386Z,100122.33
2019-02-28T04:06:03.395Z,100126.05
2019-02-28T04:08:30.366Z,100120.25
2019-02-28T04:10:56.611Z,100125.91
2019-02-28T04:13:24.352Z,100118.11
2019-02-28T04:16:07.609Z,100124.41
2019-02-28T04:18:22.215Z,100122.97
2019-02-28T04:20:49.952Z,100112.45
2019-02-28T04:23:17.871Z,100116.50
2019-02-28T04:25:45.606Z,100112.81
2019-02-28T04:28:17.266Z,100111.17
2019-02-28T04:30:44.002Z,100108.27
2019-02-28T04:33:12.134Z,100105.05
2019-02-28T04:35:39.868Z,100096.41
2019-02-28T04:38:07.616Z,100100.95
2019-02-28T04:40:35.372Z,100097.07
2019-02-28T04:43:03.299Z,100093.55
2019-02-28T04:45:31.061Z,100091.48
2019-02-28T04:47:59.024Z,100096.66
2019-02-28T04:50:31.194Z,100089.36
2019-02-28T04:52:56.598Z,100086.58
2019-02-28T04:55:24.369Z,100092.23
2019-02-28T04:57:52.406Z,100089.23
2019-02-28T05:00:20.183Z,100085.44
2019-02-28T05:02:47.972Z,100083.44
2019-02-28T05:05:15.760Z,100077.84
2019-02-28T05:07:43.669Z,100076.73
2019-02-28T05:10:11.548Z,100081.07
2019-02-28T05:12:39.876Z,100069.61
2019-02-28T05:15:09.028Z,100077.20
2019-02-28T05:17:36.940Z,100063.34
2019-02-28T05:20:07.284Z,100059.56
2019-02-28T05:22:35.095Z,100060.92
2019-02-28T05:25:03.164Z,100057.74
2019-02-28T05:27:34.831Z,100063.59
2019-02-28T05:30:00.761Z,100068.11
2019-02-28T05:32:28.660Z,100075.64
2019-02-28T05:34:56.396Z,100069.45
2019-02-28T05:37:24.326Z,100060.98
2019-02-28T05:39:52.125Z,100071.21
2019-02-28T05:42:20.248Z,100068.44
2019-02-28T05:44:49.834Z,100061.84
2019-02-28T05:47:17.760Z,100065.13
2019-02-28T05:49:45.554Z,100066.75
2019-02-28T05:52:13.468Z,100064.67
2019-02-28T05:54:41.230Z,100065.41
2019-02-28T05:57:09.085Z,100065.13
2019-02-28T05:59:37.062Z,100059.52
2019-02-28T06:02:04.819Z,100059.23
2019-02-28T06:04:34.178Z,100063.38
2019-02-28T06:07:02.254Z,100064.47
2019-02-28T06:09:30.194Z,100060.25
2019-02-28T06:11:57.979Z,100055.34
2019-02-28T06:14:27.537Z,100051.75
2019-02-28T06:16:55.500Z,100051.47
2019-02-28T06:19:23.239Z,100055.05
2019-02-28T06:21:52.945Z,100066.52
2019-02-28T06:24:20.647Z,100067.77
2019-02-28T06:26:48.452Z,100065.68
2019-02-28T06:29:16.258Z,100054.62
2019-02-28T06:31:45.466Z,100067.53
2019-02-28T06:34:13.731Z,100063.55
2019-02-28T06:36:41.454Z,100062.48
2019-02-28T06:39:09.227Z,100060.23
2019-02-28T06:41:39.850Z,100051.95
2019-02-28T06:44:06.843Z,100061.43
2019-02-28T06:46:34.628Z,100066.51
2019-02-28T06:49:06.990Z,100065.89
2019-02-28T06:51:32.079Z,100067.86
2019-02-28T06:54:00.075Z,100075.72
2019-02-28T06:56:27.826Z,100070.20
2019-02-28T06:58:55.787Z,100075.65
2019-02-28T07:01:23.537Z,100081.65
2019-02-28T07:03:53.597Z,100086.51
2019-02-28T07:06:20.971Z,100081.98
2019-02-28T07:08:48.720Z,100085.16
2019-02-28T07:11:19.941Z,100086.52
2019-02-28T07:13:46.516Z,100081.67
2019-02-28T07:16:14.303Z,100083.13
2019-02-28T07:18:42.331Z,100071.58
2019-02-28T07:21:10.322Z,100079.53
2019-02-28T07:23:38.254Z,100073.25
2019-02-28T07:26:06.023Z,100066.46
2019-02-28T07:28:37.415Z,100068.81
2019-02-28T07:31:03.480Z,100066.55
2019-02-28T07:33:31.237Z,100074.92
2019-02-28T07:35:59.054Z,100074.02
2019-02-28T07:38:29.023Z,100074.92
2019-02-28T07:40:56.507Z,100074.09
2019-02-28T07:43:24.273Z,100059.69
2019-02-28T07:45:53.494Z,100064.49
2019-02-28T07:48:26.823Z,100067.52
2019-02-28T07:50:50.972Z,100064.84
2019-02-28T07:53:18.724Z,100061.62
2019-02-28T07:55:46.508Z,100056.27
2019-02-28T07:58:15.252Z,100056.16
2019-02-28T08:00:43.072Z,100050.75
2019-02-28T08:03:11.972Z,100048.92
2019-02-28T08:05:39.803Z,100051.03
2019-02-28T08:08:07.598Z,100039.56
2019-02-28T08:10:35.474Z,100047.63
2019-02-28T08:13:04.068Z,100044.42
2019-02-28T08:15:31.939Z,100039.88
2019-02-28T08:17:59.684Z,100038.44
2019-02-28T08:20:30.759Z,100039.47
2019-02-28T08:22:57.786Z,100037.09
2019-02-28T08:25:25.793Z,100034.61
2019-02-28T08:27:59.143Z,100040.33
2019-02-28T08:30:23.322Z,100032.73
2019-02-28T08:32:51.137Z,100030.30
2019-02-28T08:35:19.055Z,100035.19
2019-02-28T08:37:46.805Z,100023.52
2019-02-28T08:40:16.573Z,100029.94
2019-02-28T08:42:44.295Z,100031.00
2019-02-28T08:45:12.964Z,100025.17
2019-02-28T08:47:40.743Z,100028.91
2019-02-28T08:50:12.135Z,100022.91
2019-02-28T08:52:41.012Z,100013.25
2019-02-28T08:55:11.862Z,100023.95
2019-02-28T08:57:39.639Z,100017.23
2019-02-28T09:00:11.453Z,100019.66
2019-02-28T09:02:39.183Z,100017.38
2019-02-28T09:05:07.440Z,100019.44
2019-02-28T09:07:35.199Z,100020.78
2019-02-28T09:10:06.383Z,100024.89
2019-02-28T09:12:34.116Z,100012.70
2019-02-28T09:15:02.061Z,100015.89
2019-02-28T09:17:29.851Z,100007.98
2019-02-28T09:19:57.661Z,100008.81
2019-02-28T09:22:27.351Z,100008.08
2019-02-28T09:24:55.063Z,100007.95
2019-02-28T09:27:22.827Z,100006.02
2019-02-28T09:29:54.509Z,99998.48
2019-02-28T09:32:20.229Z,99995.91
2019-02-28T09:34:47.861Z,99998.98
2019-02-28T09:37:15.654Z,99989.23
2019-02-28T09:39:43.390Z,99988.71
2019-02-28T09:42:14.819Z,99993.23
2019-02-28T09:44:40.854Z,99998.46
2019-02-28T09:47:11.576Z,100003.20
2019-02-28T09:49:38.315Z,100001.94
2019-02-28T09:52:07.225Z,100000.70
2019-02-28T09:54:35.108Z,100000.69
2019-02-28T09:57:02.890Z,100009.97
2019-02-28T09:59:30.636Z,100005.16
2019-02-28T10:02:01.321Z,100009.13
2019-02-28T10:04:30.637Z,100016.58
2019-02-28T10:06:57.822Z,100012.16
2019-02-28T10:09:25.561Z,100017.50
2019-02-28T10:11:53.372Z,100012.33
2019-02-28T10:14:21.310Z,100021.21
2019-02-28T10:16:49.528Z,100011.78
2019-02-28T10:19:18.715Z,100021.23
2019-02-28T10:21:51.812Z,100007.77
2019-02-28T10:24:16.166Z,100012.05
2019-02-28T10:26:43.939Z,100022.80
2019-02-28T10:29:11.695Z,100017.39
2019-02-28T10:31:39.487Z,100021.41
2019-02-28T10:34:07.242Z,100019.66
2019-02-28T10:36:35.015Z,100007.22
2019-02-28T10:39:05.889Z,100001.62
2019-02-28T10:41:34.646Z,99992.77
2019-02-28T10:44:02.381Z,99996.73
2019-02-28T10:46:30.152Z,100002.95
2019-02-28T10:48:57.934Z,100000.48
2019-02-28T10:51:25.731Z,100014.86
2019-02-28T10:53:53.459Z,100007.69
2019-02-28T10:56:21.212Z,100007.28
2019-02-28T10:58:50.139Z,100001.42
2019-02-28T11:01:18.619Z,99997.35
2019-02-28T11:03:46.452Z,99993.45
2019-02-28T11:06:14.331Z,99993.23
2019-02-28T11:08:44.443Z,99985.36
2019-02-28T11:11:12.685Z,99992.22
2019-02-28T11:13:40.529Z,99990.50
2019-02-28T11:16:08.279Z,99992.35
2019-02-28T11:18:36.546Z,99975.00
2019-02-28T11:21:04.289Z,99975.16
2019-02-28T11:23:33.264Z,99969.23
2019-02-28T11:26:03.412Z,99971.86
2019-02-28T11:28:31.821Z,99970.50
2019-02-28T11:31:01.169Z,99972.85
2019-02-28T11:33:30.620Z,99959.05
2019-02-28T11:35:59.650Z,99966.86
2019-02-28T11:38:27.575Z,99967.66
2019-02-28T11:40:57.528Z,99960.37
2019-02-28T11:43:26.752Z,99964.09
2019-02-28T11:45:56.428Z,99963.20
2019-02-28T11:48:25.115Z,99956.83
2019-02-28T11:50:52.856Z,99951.59
2019-02-28T11:53:20.612Z,99955.28
2019-02-28T11:55:48.358Z,99955.95
2019-02-28T11:58:17.677Z,99946.47
2019-02-28T12:00:45.781Z,99941.52
2019-02-28T12:03:13.586Z,99946.83
2019-02-28T12:05:41.464Z,99948.63
2019-02-28T12:08:10.542Z,99950.11
2019-02-28T12:10:38.488Z,99941.98
2019-02-28T12:13:06.275Z,99941.53
2019-02-28T12:15:34.065Z,99942.64
2019-02-28T12:18:04.521Z,99943.55
2019-02-28T12:20:31.578Z,99941.70
2019-02-28T12:22:59.353Z,99950.61
2019-02-28T12:25:27.502Z,99944.77
2019-02-28T12:27:55.421Z,99938.34
2019-02-28T12:30:26.207Z,99942.36
2019-02-28T12:32:55.948Z,99938.41
2019-02-28T12:35:23.888Z,99936.00
2019-02-28T12:37:54.038Z,99932.31
2019-02-28T12:40:25.200Z,99940.09
2019-02-28T12:42:52.965Z,99943.56
2019-02-28T12:45:25.182Z,99942.97
2019-02-28T12:47:53.087Z,99946.06
2019-02-28T12:50:20.915Z,99944.48
2019-02-28T12:52:49.903Z,99948.59
2019-02-28T12:55:18.736Z,99950.34
2019-02-28T12:57:46.688Z,99937.86
2019-02-28T13:00:23.433Z,99939.69
2019-02-28T13:02:52.426Z,99944.12
2019-02-28T13:05:20.163Z,99938.68
2019-02-28T13:07:48.586Z,99939.97
2019-02-28T13:10:17.981Z,99945.95
2019-02-28T13:12:48.941Z,99945.98
2019-02-28T13:15:16.105Z,99933.94
2019-02-28T13:17:43.945Z,99937.38
2019-02-28T13:20:14.678Z,99939.25
2019-02-28T13:22:42.429Z,99937.31
2019-02-28T13:25:11.808Z,99925.59
2019-02-28T13:27:41.611Z,99922.41
2019-02-28T13:30:15.969Z,99924.48
2019-02-28T13:32:45.016Z,99933.86
2019-02-28T13:35:19.665Z,99925.70
2019-02-28T13:37:47.697Z,99925.97
2019-02-28T13:40:15.525Z,99921.36
2019-02-28T13:42:44.000Z,99919.74
2019-02-28T13:45:14.748Z,99911.02
2019-02-28T13:47:46.287Z,99911.91
2019-02-28T13:50:17.364Z,99905.89
2019-02-28T13:52:45.368Z,99910.27
2019-02-28T13:55:14.339Z,99912.18
2019-02-28T13:57:43.687Z,99900.72
2019-02-28T14:00:22.697Z,99912.16
2019-02-28T14:02:53.000Z,99915.17
2019-02-28T14:05:21.021Z,99910.80
2019-02-28T14:07:49.471Z,99915.16
2019-02-28T14:10:17.960Z,99911.34
2019-02-28T14:12:45.965Z,99902.91
2019-02-28T14:15:18.076Z,99901.80
2019-02-28T14:17:45.920Z,99902.36
2019-02-28T14:20:13.966Z,99906.18
2019-02-28T14:22:42.718Z,99897.44
2019-02-28T14:25:11.486Z,99901.77
2019-02-28T14:27:39.270Z,99900.90
2019-02-28T14:30:10.978Z,99900.06
2019-02-28T14:32:42.134Z,99916.92
2019-02-28T14:35:08.682Z,99920.69
2019-02-28T14:37:36.452Z,99918.19
2019-02-28T14:40:08.042Z,99925.72
2019-02-28T14:42:35.858Z,99935.21
2019-02-28T14:45:07.125Z,99927.88
2019-02-28T14:47:34.077Z,99916.59
2019-02-28T14:50:01.948Z,99920.02
2019-02-28T14:52:30.045Z,99921.95
2019-02-28T14:54:58.323Z,99925.70
2019-02-28T14:57:26.303Z,99928.17
2019-02-28T14:59:54.049Z,99922.11
2019-02-28T15:02:21.831Z,99927.31
2019-02-28T15:04:49.587Z,99928.05
2019-02-28T15:07:17.669Z,99930.33
2019-02-28T15:09:45.434Z,99921.84
2019-02-28T15:12:13.197Z,99933.85
2019-02-28T15:14:43.247Z,99933.28
2019-02-28T15:17:10.616Z,99935.95
2019-02-28T15:19:38.392Z,99931.00
2019-02-28T15:22:06.172Z,99931.23
2019-02-28T15:24:35.606Z,99931.11
2019-02-28T15:27:04.483Z,99930.56
2019-02-28T15:29:33.102Z,99926.88
2019-02-28T15:32:00.888Z,99921.98
2019-02-28T15:34:28.646Z,99932.83
2019-02-28T15:36:59.326Z,99930.48
2019-02-28T15:39:26.084Z,99925.63
2019-02-28T15:41:54.498Z,99934.55
2019-02-28T15:44:25.586Z,99930.89
2019-02-28T15:46:52.722Z,99931.83
2019-02-28T15:49:20.744Z,99927.69
2019-02-28T15:51:48.938Z,99921.17
2019-02-28T15:54:16.991Z,99922.27
2019-02-28T15:56:45.113Z,99918.02
2019-02-28T15:59:14.815Z,99922.41
2019-02-28T16:01:43.646Z,99924.48
2019-02-28T16:04:11.761Z,99922.22
2019-02-28T16:06:39.966Z,99926.92
2019-02-28T16:09:12.487Z,99929.12
2019-02-28T16:11:41.020Z,99929.55
2019-02-28T16:14:14.563Z,99930.60
2019-02-28T16:16:39.980Z,99928.12
2019-02-28T16:19:08.696Z,99934.81
2019-02-28T16:21:38.163Z,99940.92
2019-02-28T16:24:07.596Z,99939.73
2019-02-28T16:26:35.684Z,99936.20
2019-02-28T16:29:08.590Z,99942.74
2019-02-28T16:31:43.795Z,99940.59
2019-02-28T16:34:13.918Z,99943.48
2019-02-28T16:36:43.666Z,99942.50
2019-02-28T16:39:13.034Z,99949.84
2019-02-28T16:41:49.248Z,99941.81
2019-02-28T16:44:27.652Z,99932.31
2019-02-28T16:47:06.206Z,99925.80
2019-02-28T16:50:03.243Z,99933.58
2019-02-28T16:52:37.355Z,99938.89
2019-02-28T16:55:08.436Z,99943.39
2019-02-28T16:57:37.607Z,99945.77
2019-02-28T17:00:07.738Z,99945.08
2019-02-28T17:03:54.729Z,99943.45
2019-02-28T17:06:24.115Z,99951.70
2019-02-28T17:09:18.204Z,99952.36
2019-02-28T17:12:17.112Z,99964.48
2019-02-28T17:14:48.338Z,99954.61
2019-02-28T17:17:28.997Z,99955.33
2019-02-28T17:20:03.003Z,99966.55
2019-02-28T17:22:31.902Z,99970.26
2019-02-28T17:25:03.322Z,99963.70
2019-02-28T17:27:54.495Z,99961.80
2019-02-28T17:30:48.649Z,99963.24
2019-02-28T17:33:17.695Z,99971.16
2019-02-28T17:35:45.942Z,99968.30
2019-02-28T17:38:14.030Z,99962.47
2019-02-28T17:40:42.128Z,99965.92
2019-02-28T17:43:10.192Z,99966.92
2019-02-28T17:45:39.322Z,99963.95
2019-02-28T17:49:33.253Z,99973.20
2019-02-28T17:52:17.880Z,99966.93
2019-02-28T17:55:16.823Z,99978.66
2019-02-28T17:58:24.848Z,99983.39
2019-02-28T18:01:48.467Z,99976.91
2019-02-28T18:05:00.453Z,99978.00
2019-02-28T18:08:02.754Z,99979.50
2019-02-28T18:11:37.198Z,99980.36
2019-02-28T18:15:05.618Z,99985.48
2019-02-28T18:18:52.032Z,99988.20
2019-02-28T18:22:52.040Z,99984.47
2019-02-28T18:26:38.716Z,99988.94
2019-02-28T18:29:16.076Z,99996.70
2019-02-28T18:31:43.861Z,100003.03
2019-02-28T18:34:24.838Z,99997.29
2019-02-28T18:36:52.650Z,99987.56
2019-02-28T18:39:20.412Z,99995.86
2019-02-28T18:41:48.219Z,99991.91
2019-02-28T18:44:15.995Z,99988.18
2019-02-28T18:46:43.849Z,99984.44
2019-02-28T18:49:11.714Z,99983.78
2019-02-28T18:51:39.523Z,99984.47
2019-02-28T18:54:08.378Z,99991.97
2019-02-28T18:56:36.149Z,99990.94
2019-02-28T18:59:04.077Z,99995.27
2019-02-28T19:01:31.873Z,99998.59
2019-02-28T19:03:59.693Z,99992.92
2019-02-28T19:06:27.511Z,99992.31
2019-02-28T19:08:55.313Z,99988.79
2019-02-28T19:11:23.108Z,99982.71
2019-02-28T19:13:50.884Z,99977.64
2019-02-28T19:16:19.529Z,99988.33
2019-02-28T19:18:47.388Z,99992.38
2019-02-28T19:21:15.215Z,99998.84
2019-02-28T19:23:43.040Z,100003.03
2019-02-28T19:26:10.832Z,100010.55
2019-02-28T19:28:38.580Z,100005.77
2019-02-28T19:31:06.356Z,100008.17
2019-02-28T19:33:34.099Z,100010.03
2019-02-28T19:36:01.912Z,100007.66
2019-02-28T19:38:30.136Z,100013.86
2019-02-28T19:40:59.298Z,100023.14
2019-02-28T19:43:27.058Z,100025.25
2019-02-28T19:45:55.463Z,100024.05
2019-02-28T19:48:24.206Z,100022.78
2019-02-28T19:50:51.948Z,100021.27
2019-02-28T19:53:19.762Z,100025.47
2019-02-28T19:55:47.539Z,100024.79
2019-02-28T19:58:15.398Z,100024.64
2019-02-28T20:00:43.252Z,100028.61
2019-02-28T20:03:11.117Z,100027.77
2019-02-28T20:05:40.331Z,100030.16
2019-02-28T20:08:08.130Z,100024.27
2019-02-28T20:10:37.197Z,100026.73
2019-02-28T20:13:15.530Z,100028.08
2019-02-28T20:15:43.297Z,100029.80
2019-02-28T20:18:11.314Z,100033.63
2019-02-28T20:20:39.250Z,100028.53
2019-02-28T20:23:08.406Z,100023.90
2019-02-28T20:25:38.504Z,100022.91
2019-02-28T20:28:06.315Z,100020.35
2019-02-28T20:30:37.081Z,100023.05
2019-02-28T20:33:04.972Z,100020.44
2019-02-28T20:35:35.554Z,100018.72
2019-02-28T20:38:03.585Z,100014.22
2019-02-28T20:40:33.809Z,100014.97
2019-02-28T20:43:01.612Z,100015.36
2019-02-28T20:45:29.377Z,100012.67
2019-02-28T20:47:57.632Z,100017.22
2019-02-28T20:50:40.271Z,100013.94
2019-02-28T20:53:08.241Z,100008.78
2019-02-28T20:55:36.015Z,100003.55
2019-02-28T20:58:06.859Z,99997.78
2019-02-28T21:00:34.603Z,99989.07
2019-02-28T21:03:02.680Z,99980.23
2019-02-28T21:05:30.486Z,99979.81
2019-02-28T21:07:58.330Z,99988.62
2019-02-28T21:10:28.623Z,99993.11
2019-02-28T21:12:56.412Z,100004.42
2019-02-28T21:15:24.900Z,100007.11
2019-02-28T21:17:52.732Z,100014.24
2019-02-28T21:20:20.539Z,100015.15
2019-02-28T21:22:48.299Z,100023.82
2019-02-28T21:25:16.122Z,100014.91
2019-02-28T21:27:43.910Z,100014.59
2019-02-28T21:30:17.279Z,100012.45
2019-02-28T21:32:45.028Z,100021.94
2019-02-28T21:35:14.834Z,100018.50
2019-02-28T21:37:42.546Z,100021.20
2019-02-28T21:40:11.638Z,100031.09
2019-02-28T21:42:39.426Z,100026.87
2019-02-28T21:45:08.868Z,100025.16
2019-02-28T21:47:36.619Z,100028.28
2019-02-28T21:50:08.385Z,100027.99
2019-02-28T21:52:36.150Z,100023.72
2019-02-28T21:55:04.893Z,100028.08
2019-02-28T21:57:32.687Z,100026.27
2019-02-28T22:00:00.481Z,100025.81
2019-02-28T22:02:28.231Z,100019.06
2019-02-28T22:04:55.986Z,100009.03
2019-02-28T22:07:23.759Z,100014.64
2019-02-28T22:09:51.519Z,100006.70
2019-02-28T22:12:19.303Z,100007.86
2019-02-28T22:14:47.043Z,100011.58
2019-02-28T22:17:14.792Z,100014.00
2019-02-28T22:19:42.580Z,100010.98
2019-02-28T22:22:10.346Z,100016.46
2019-02-28T22:24:38.093Z,100012.27
2019-02-28T22:27:05.990Z,100017.66
2019-02-28T22:29:33.792Z,100013.30
2019-02-28T22:32:24.196Z,100015.48
2019-02-28T22:34:51.923Z,100014.52
2019-02-28T22:37:19.730Z,100007.63
2019-02-28T22:39:47.559Z,100003.44
2019-02-28T22:42:22.107Z,100003.88
2019-02-28T22:44:45.237Z,100005.59
2019-02-28T22:47:12.974Z,99999.63
2019-02-28T22:49:40.755Z,99997.77
2019-02-28T22:52:08.538Z,99996.93
2019-02-28T22:54:36.298Z,99998.98
2019-02-28T22:57:04.074Z,99994.98
2019-02-28T22:59:31.833Z,99993.17
2019-02-28T23:01:59.581Z,99984.43
2019-02-28T23:04:27.307Z,99986.20
2019-02-28T23:06:55.064Z,99980.89
2019-02-28T23:09:22.776Z,99982.62
2019-02-28T23:11:50.520Z,99981.78
2019-02-28T23:14:18.447Z,99982.53
2019-02-28T23:16:46.205Z,99986.72
2019-02-28T23:19:13.967Z,99982.53
2019-02-28T23:21:41.723Z,99986.94
2019-02-28T23:24:09.492Z,99983.64
2019-02-28T23:27:12.060Z,99966.73
2019-02-28T23:30:20.333Z,99965.28
2019-02-28T23:33:07.795Z,99961.17
2019-02-28T23:35:41.398Z,99958.66
2019-02-28T23:38:09.194Z,99962.91
2019-02-28T23:40:37.066Z,99957.80
2019-02-28T23:43:05.028Z,99958.55
2019-02-28T23:45:32.936Z,99955.65
2019-02-28T23:48:00.715Z,99944.55
2019-02-28T23:50:28.653Z,99946.27
2019-02-28T23:52:56.414Z,99947.81
2019-02-28T23:55:24.377Z,99948.79
2019-02-28T23:57:52.372Z,99948.45
